sensor_id;sensor_type;location;lat;lon;timestamp;temperature;humidity
30304;DHT22;17112;48.636;10.152;2023-06-22T00:00:59;23.10;64.80
30304;DHT22;17112;48.636;10.152;2023-06-22T00:03:26;23.00;64.70
30304;DHT22;17112;48.636;10.152;2023-06-22T00:05:52;23.00;64.80
30304;DHT22;17112;48.636;10.152;2023-06-22T00:08:19;23.00;64.90
30304;DHT22;17112;48.636;10.152;2023-06-22T00:10:45;22.90;65.10
30304;DHT22;17112;48.636;10.152;2023-06-22T00:13:12;22.80;65.00
30304;DHT22;17112;48.636;10.152;2023-06-22T00:15:39;22.80;65.20
30304;DHT22;17112;48.636;10.152;2023-06-22T00:18:06;22.80;65.30
30304;DHT22;17112;48.636;10.152;2023-06-22T00:20:32;22.70;65.60
30304;DHT22;17112;48.636;10.152;2023-06-22T00:22:59;22.70;65.60
30304;DHT22;17112;48.636;10.152;2023-06-22T00:25:25;22.70;65.80
30304;DHT22;17112;48.636;10.152;2023-06-22T00:27:51;22.70;65.90
30304;DHT22;17112;48.636;10.152;2023-06-22T00:30:17;22.70;66.10
30304;DHT22;17112;48.636;10.152;2023-06-22T00:32:44;22.70;66.10
30304;DHT22;17112;48.636;10.152;2023-06-22T00:35:13;22.70;65.90
30304;DHT22;17112;48.636;10.152;2023-06-22T00:37:39;22.70;65.70
30304;DHT22;17112;48.636;10.152;2023-06-22T00:40:09;22.70;65.50
30304;DHT22;17112;48.636;10.152;2023-06-22T00:42:40;22.60;65.60
30304;DHT22;17112;48.636;10.152;2023-06-22T00:45:07;22.60;65.70
30304;DHT22;17112;48.636;10.152;2023-06-22T00:47:34;22.60;65.60
30304;DHT22;17112;48.636;10.152;2023-06-22T00:50:01;22.50;65.50
30304;DHT22;17112;48.636;10.152;2023-06-22T00:52:28;22.50;65.60
30304;DHT22;17112;48.636;10.152;2023-06-22T00:54:56;22.40;65.70
30304;DHT22;17112;48.636;10.152;2023-06-22T00:57:24;22.40;65.90
30304;DHT22;17112;48.636;10.152;2023-06-22T00:59:53;22.30;66.10
30304;DHT22;17112;48.636;10.152;2023-06-22T01:02:19;22.30;66.20
30304;DHT22;17112;48.636;10.152;2023-06-22T01:04:45;22.30;66.40
30304;DHT22;17112;48.636;10.152;2023-06-22T01:07:21;22.30;66.70
30304;DHT22;17112;48.636;10.152;2023-06-22T01:10:38;22.20;67.10
30304;DHT22;17112;48.636;10.152;2023-06-22T01:13:07;22.20;67.00
30304;DHT22;17112;48.636;10.152;2023-06-22T01:15:41;22.20;66.90
30304;DHT22;17112;48.636;10.152;2023-06-22T01:18:09;22.10;66.50
30304;DHT22;17112;48.636;10.152;2023-06-22T01:20:37;22.00;66.30
30304;DHT22;17112;48.636;10.152;2023-06-22T01:23:32;22.00;66.50
30304;DHT22;17112;48.636;10.152;2023-06-22T01:26:13;22.00;66.90
30304;DHT22;17112;48.636;10.152;2023-06-22T01:28:47;21.90;67.00
30304;DHT22;17112;48.636;10.152;2023-06-22T01:31:19;22.00;66.20
30304;DHT22;17112;48.636;10.152;2023-06-22T01:33:50;21.90;66.30
30304;DHT22;17112;48.636;10.152;2023-06-22T01:36:17;21.80;66.60
30304;DHT22;17112;48.636;10.152;2023-06-22T01:38:44;21.70;66.70
30304;DHT22;17112;48.636;10.152;2023-06-22T01:41:11;21.70;67.00
30304;DHT22;17112;48.636;10.152;2023-06-22T01:43:38;21.70;67.10
30304;DHT22;17112;48.636;10.152;2023-06-22T01:46:04;21.60;67.20
30304;DHT22;17112;48.636;10.152;2023-06-22T01:48:30;21.60;67.40
30304;DHT22;17112;48.636;10.152;2023-06-22T01:50:56;21.60;67.60
30304;DHT22;17112;48.636;10.152;2023-06-22T01:53:23;21.50;67.60
30304;DHT22;17112;48.636;10.152;2023-06-22T01:55:48;21.50;67.70
30304;DHT22;17112;48.636;10.152;2023-06-22T01:58:15;21.50;67.70
30304;DHT22;17112;48.636;10.152;2023-06-22T02:00:45;21.50;67.80
30304;DHT22;17112;48.636;10.152;2023-06-22T02:03:19;21.50;68.20
30304;DHT22;17112;48.636;10.152;2023-06-22T02:05:56;21.40;68.30
30304;DHT22;17112;48.636;10.152;2023-06-22T02:08:28;21.40;68.50
30304;DHT22;17112;48.636;10.152;2023-06-22T02:10:57;21.40;68.10
30304;DHT22;17112;48.636;10.152;2023-06-22T02:13:25;21.40;68.20
30304;DHT22;17112;48.636;10.152;2023-06-22T02:15:51;21.40;68.10
30304;DHT22;17112;48.636;10.152;2023-06-22T02:18:17;21.30;68.20
30304;DHT22;17112;48.636;10.152;2023-06-22T02:20:43;21.30;68.20
30304;DHT22;17112;48.636;10.152;2023-06-22T02:23:08;21.30;68.30
30304;DHT22;17112;48.636;10.152;2023-06-22T02:25:35;21.20;68.20
30304;DHT22;17112;48.636;10.152;2023-06-22T02:28:01;21.20;68.40
30304;DHT22;17112;48.636;10.152;2023-06-22T02:30:27;21.20;68.50
30304;DHT22;17112;48.636;10.152;2023-06-22T02:32:52;21.20;68.60
30304;DHT22;17112;48.636;10.152;2023-06-22T02:35:27;21.10;68.60
30304;DHT22;17112;48.636;10.152;2023-06-22T02:38:02;21.10;69.00
30304;DHT22;17112;48.636;10.152;2023-06-22T02:40:28;21.10;69.20
30304;DHT22;17112;48.636;10.152;2023-06-22T02:42:58;21.10;69.60
30304;DHT22;17112;48.636;10.152;2023-06-22T02:45:27;21.10;69.00
30304;DHT22;17112;48.636;10.152;2023-06-22T02:47:52;21.00;68.80
30304;DHT22;17112;48.636;10.152;2023-06-22T02:50:18;21.00;68.90
30304;DHT22;17112;48.636;10.152;2023-06-22T02:52:44;21.00;69.00
30304;DHT22;17112;48.636;10.152;2023-06-22T02:55:09;21.00;69.10
30304;DHT22;17112;48.636;10.152;2023-06-22T02:57:35;21.00;69.40
30304;DHT22;17112;48.636;10.152;2023-06-22T03:00:03;21.00;69.80
30304;DHT22;17112;48.636;10.152;2023-06-22T03:02:42;21.00;70.20
30304;DHT22;17112;48.636;10.152;2023-06-22T03:05:07;21.00;70.10
30304;DHT22;17112;48.636;10.152;2023-06-22T03:07:42;21.00;70.10
30304;DHT22;17112;48.636;10.152;2023-06-22T03:10:09;21.00;70.30
30304;DHT22;17112;48.636;10.152;2023-06-22T03:12:35;21.10;70.10
30304;DHT22;17112;48.636;10.152;2023-06-22T03:15:00;21.10;70.00
30304;DHT22;17112;48.636;10.152;2023-06-22T03:17:26;21.10;70.10
30304;DHT22;17112;48.636;10.152;2023-06-22T03:19:52;21.00;70.00
30304;DHT22;17112;48.636;10.152;2023-06-22T03:22:17;21.10;70.20
30304;DHT22;17112;48.636;10.152;2023-06-22T03:24:43;21.10;70.30
30304;DHT22;17112;48.636;10.152;2023-06-22T03:27:08;21.10;70.40
30304;DHT22;17112;48.636;10.152;2023-06-22T03:29:34;21.00;70.30
30304;DHT22;17112;48.636;10.152;2023-06-22T03:32:00;21.00;70.40
30304;DHT22;17112;48.636;10.152;2023-06-22T03:34:27;21.10;70.50
30304;DHT22;17112;48.636;10.152;2023-06-22T03:36:52;21.10;70.50
30304;DHT22;17112;48.636;10.152;2023-06-22T03:39:18;21.10;70.60
30304;DHT22;17112;48.636;10.152;2023-06-22T03:41:44;21.10;70.70
30304;DHT22;17112;48.636;10.152;2023-06-22T03:44:09;21.10;70.60
30304;DHT22;17112;48.636;10.152;2023-06-22T03:46:37;21.20;70.60
30304;DHT22;17112;48.636;10.152;2023-06-22T03:49:03;21.20;70.70
30304;DHT22;17112;48.636;10.152;2023-06-22T03:51:30;21.20;70.70
30304;DHT22;17112;48.636;10.152;2023-06-22T03:53:56;21.20;70.70
30304;DHT22;17112;48.636;10.152;2023-06-22T03:56:21;21.20;70.70
30304;DHT22;17112;48.636;10.152;2023-06-22T03:58:47;21.30;70.70
30304;DHT22;17112;48.636;10.152;2023-06-22T04:01:13;21.30;70.70
30304;DHT22;17112;48.636;10.152;2023-06-22T04:03:39;21.30;70.60
30304;DHT22;17112;48.636;10.152;2023-06-22T04:06:04;21.30;70.60
30304;DHT22;17112;48.636;10.152;2023-06-22T04:08:30;21.40;70.60
30304;DHT22;17112;48.636;10.152;2023-06-22T04:10:56;21.40;70.30
30304;DHT22;17112;48.636;10.152;2023-06-22T04:13:22;21.40;70.00
30304;DHT22;17112;48.636;10.152;2023-06-22T04:15:47;21.40;69.90
30304;DHT22;17112;48.636;10.152;2023-06-22T04:18:13;21.40;69.70
30304;DHT22;17112;48.636;10.152;2023-06-22T04:20:39;21.40;69.70
30304;DHT22;17112;48.636;10.152;2023-06-22T04:23:04;21.40;69.60
30304;DHT22;17112;48.636;10.152;2023-06-22T04:25:30;21.40;69.70
30304;DHT22;17112;48.636;10.152;2023-06-22T04:27:56;21.40;69.80
30304;DHT22;17112;48.636;10.152;2023-06-22T04:30:21;21.30;69.80
30304;DHT22;17112;48.636;10.152;2023-06-22T04:32:47;21.30;69.90
30304;DHT22;17112;48.636;10.152;2023-06-22T04:35:22;21.30;70.10
30304;DHT22;17112;48.636;10.152;2023-06-22T04:37:50;21.30;70.20
30304;DHT22;17112;48.636;10.152;2023-06-22T04:40:23;21.30;70.30
30304;DHT22;17112;48.636;10.152;2023-06-22T04:42:49;21.40;70.50
30304;DHT22;17112;48.636;10.152;2023-06-22T04:45:19;21.40;70.60
30304;DHT22;17112;48.636;10.152;2023-06-22T04:47:46;21.40;70.70
30304;DHT22;17112;48.636;10.152;2023-06-22T04:50:12;21.50;70.90
30304;DHT22;17112;48.636;10.152;2023-06-22T04:52:38;21.50;70.90
30304;DHT22;17112;48.636;10.152;2023-06-22T04:55:04;21.60;70.80
30304;DHT22;17112;48.636;10.152;2023-06-22T04:57:30;21.70;71.00
30304;DHT22;17112;48.636;10.152;2023-06-22T05:00:00;21.80;70.80
30304;DHT22;17112;48.636;10.152;2023-06-22T05:02:40;21.90;70.50
30304;DHT22;17112;48.636;10.152;2023-06-22T05:05:06;22.00;70.30
30304;DHT22;17112;48.636;10.152;2023-06-22T05:07:35;22.20;70.30
30304;DHT22;17112;48.636;10.152;2023-06-22T05:10:05;22.30;70.80
30304;DHT22;17112;48.636;10.152;2023-06-22T05:12:31;22.40;69.80
30304;DHT22;17112;48.636;10.152;2023-06-22T05:14:56;22.60;69.80
30304;DHT22;17112;48.636;10.152;2023-06-22T05:17:22;22.60;69.40
30304;DHT22;17112;48.636;10.152;2023-06-22T05:19:48;22.80;69.20
30304;DHT22;17112;48.636;10.152;2023-06-22T05:22:17;22.90;69.20
30304;DHT22;17112;48.636;10.152;2023-06-22T05:24:43;23.00;69.20
30304;DHT22;17112;48.636;10.152;2023-06-22T05:27:09;23.20;68.60
30304;DHT22;17112;48.636;10.152;2023-06-22T05:29:36;23.30;68.10
30304;DHT22;17112;48.636;10.152;2023-06-22T05:32:02;23.40;67.90
30304;DHT22;17112;48.636;10.152;2023-06-22T05:34:28;23.60;67.60
30304;DHT22;17112;48.636;10.152;2023-06-22T05:36:54;23.70;66.80
30304;DHT22;17112;48.636;10.152;2023-06-22T05:39:19;23.80;66.60
30304;DHT22;17112;48.636;10.152;2023-06-22T05:41:46;23.90;66.50
30304;DHT22;17112;48.636;10.152;2023-06-22T05:44:12;24.00;66.30
30304;DHT22;17112;48.636;10.152;2023-06-22T05:46:41;24.10;66.10
30304;DHT22;17112;48.636;10.152;2023-06-22T05:49:11;24.20;65.90
30304;DHT22;17112;48.636;10.152;2023-06-22T05:51:36;24.30;65.20
30304;DHT22;17112;48.636;10.152;2023-06-22T05:54:02;24.40;64.90
30304;DHT22;17112;48.636;10.152;2023-06-22T05:56:28;24.40;64.60
30304;DHT22;17112;48.636;10.152;2023-06-22T05:58:53;24.50;64.50
30304;DHT22;17112;48.636;10.152;2023-06-22T06:01:19;24.60;64.40
30304;DHT22;17112;48.636;10.152;2023-06-22T06:03:45;24.70;64.10
30304;DHT22;17112;48.636;10.152;2023-06-22T06:06:11;24.70;63.90
30304;DHT22;17112;48.636;10.152;2023-06-22T06:08:38;24.80;64.00
30304;DHT22;17112;48.636;10.152;2023-06-22T06:11:03;24.90;63.60
30304;DHT22;17112;48.636;10.152;2023-06-22T06:13:29;25.00;63.20
30304;DHT22;17112;48.636;10.152;2023-06-22T06:15:55;25.10;63.00
30304;DHT22;17112;48.636;10.152;2023-06-22T06:18:21;25.20;62.80
30304;DHT22;17112;48.636;10.152;2023-06-22T06:20:47;25.20;62.80
30304;DHT22;17112;48.636;10.152;2023-06-22T06:23:12;25.40;62.70
30304;DHT22;17112;48.636;10.152;2023-06-22T06:25:38;25.40;62.70
30304;DHT22;17112;48.636;10.152;2023-06-22T06:28:04;25.60;62.50
30304;DHT22;17112;48.636;10.152;2023-06-22T06:30:30;25.60;61.80
30304;DHT22;17112;48.636;10.152;2023-06-22T06:32:56;25.70;61.40
30304;DHT22;17112;48.636;10.152;2023-06-22T06:35:22;25.80;61.50
30304;DHT22;17112;48.636;10.152;2023-06-22T06:37:49;26.00;61.10
30304;DHT22;17112;48.636;10.152;2023-06-22T06:40:17;26.00;60.50
30304;DHT22;17112;48.636;10.152;2023-06-22T06:42:45;26.10;60.70
30304;DHT22;17112;48.636;10.152;2023-06-22T06:45:22;26.20;60.10
30304;DHT22;17112;48.636;10.152;2023-06-22T06:47:49;26.30;59.50
30304;DHT22;17112;48.636;10.152;2023-06-22T06:50:15;26.40;59.90
30304;DHT22;17112;48.636;10.152;2023-06-22T06:52:41;26.40;59.90
30304;DHT22;17112;48.636;10.152;2023-06-22T06:55:08;26.50;59.80
30304;DHT22;17112;48.636;10.152;2023-06-22T06:57:38;26.60;59.80
30304;DHT22;17112;48.636;10.152;2023-06-22T07:00:06;26.70;59.60
30304;DHT22;17112;48.636;10.152;2023-06-22T07:02:35;26.80;59.10
30304;DHT22;17112;48.636;10.152;2023-06-22T07:05:01;26.90;58.70
30304;DHT22;17112;48.636;10.152;2023-06-22T07:07:29;27.00;58.70
30304;DHT22;17112;48.636;10.152;2023-06-22T07:09:54;27.10;58.50
30304;DHT22;17112;48.636;10.152;2023-06-22T07:12:20;27.20;58.50
30304;DHT22;17112;48.636;10.152;2023-06-22T07:14:46;27.30;57.90
30304;DHT22;17112;48.636;10.152;2023-06-22T07:17:12;27.40;57.70
30304;DHT22;17112;48.636;10.152;2023-06-22T07:19:37;27.50;57.10
30304;DHT22;17112;48.636;10.152;2023-06-22T07:22:04;27.50;56.50
30304;DHT22;17112;48.636;10.152;2023-06-22T07:24:30;27.60;56.30
30304;DHT22;17112;48.636;10.152;2023-06-22T07:26:55;27.70;56.50
30304;DHT22;17112;48.636;10.152;2023-06-22T07:29:23;27.70;56.50
30304;DHT22;17112;48.636;10.152;2023-06-22T07:31:49;27.80;56.40
30304;DHT22;17112;48.636;10.152;2023-06-22T07:34:17;27.90;56.20
30304;DHT22;17112;48.636;10.152;2023-06-22T07:36:43;28.00;56.20
30304;DHT22;17112;48.636;10.152;2023-06-22T07:39:09;28.10;56.40
30304;DHT22;17112;48.636;10.152;2023-06-22T07:41:35;28.20;56.30
30304;DHT22;17112;48.636;10.152;2023-06-22T07:44:01;28.30;56.20
30304;DHT22;17112;48.636;10.152;2023-06-22T07:46:27;28.40;56.20
30304;DHT22;17112;48.636;10.152;2023-06-22T07:48:56;28.50;55.70
30304;DHT22;17112;48.636;10.152;2023-06-22T07:51:21;28.60;55.80
30304;DHT22;17112;48.636;10.152;2023-06-22T07:53:47;28.70;55.20
30304;DHT22;17112;48.636;10.152;2023-06-22T07:56:13;28.70;55.20
30304;DHT22;17112;48.636;10.152;2023-06-22T07:58:44;28.80;55.00
30304;DHT22;17112;48.636;10.152;2023-06-22T08:01:10;28.80;55.20
30304;DHT22;17112;48.636;10.152;2023-06-22T08:03:36;28.90;54.80
30304;DHT22;17112;48.636;10.152;2023-06-22T08:06:03;28.90;55.00
30304;DHT22;17112;48.636;10.152;2023-06-22T08:08:29;29.00;54.80
30304;DHT22;17112;48.636;10.152;2023-06-22T08:10:54;29.10;54.60
30304;DHT22;17112;48.636;10.152;2023-06-22T08:13:20;29.20;54.60
30304;DHT22;17112;48.636;10.152;2023-06-22T08:15:46;29.20;55.00
30304;DHT22;17112;48.636;10.152;2023-06-22T08:18:11;29.30;54.80
30304;DHT22;17112;48.636;10.152;2023-06-22T08:20:37;29.50;54.90
30304;DHT22;17112;48.636;10.152;2023-06-22T08:23:03;29.50;54.10
30304;DHT22;17112;48.636;10.152;2023-06-22T08:25:35;29.60;54.20
30304;DHT22;17112;48.636;10.152;2023-06-22T08:28:01;29.70;53.70
30304;DHT22;17112;48.636;10.152;2023-06-22T08:30:27;29.70;54.00
30304;DHT22;17112;48.636;10.152;2023-06-22T08:32:53;29.80;53.70
30304;DHT22;17112;48.636;10.152;2023-06-22T08:35:22;29.90;53.50
30304;DHT22;17112;48.636;10.152;2023-06-22T08:37:47;30.00;53.40
30304;DHT22;17112;48.636;10.152;2023-06-22T08:40:22;30.00;53.50
30304;DHT22;17112;48.636;10.152;2023-06-22T08:42:48;30.10;53.50
30304;DHT22;17112;48.636;10.152;2023-06-22T08:45:14;30.20;53.50
30304;DHT22;17112;48.636;10.152;2023-06-22T08:47:41;30.20;53.20
30304;DHT22;17112;48.636;10.152;2023-06-22T08:50:11;30.30;53.00
30304;DHT22;17112;48.636;10.152;2023-06-22T08:52:37;30.30;52.40
30304;DHT22;17112;48.636;10.152;2023-06-22T08:55:05;30.40;52.60
30304;DHT22;17112;48.636;10.152;2023-06-22T08:57:31;30.40;52.60
30304;DHT22;17112;48.636;10.152;2023-06-22T08:59:58;30.50;52.30
30304;DHT22;17112;48.636;10.152;2023-06-22T09:02:25;30.50;52.50
30304;DHT22;17112;48.636;10.152;2023-06-22T09:04:50;30.60;52.50
30304;DHT22;17112;48.636;10.152;2023-06-22T09:07:23;30.60;52.70
30304;DHT22;17112;48.636;10.152;2023-06-22T09:09:50;30.70;52.40
30304;DHT22;17112;48.636;10.152;2023-06-22T09:12:17;30.80;52.40
30304;DHT22;17112;48.636;10.152;2023-06-22T09:14:45;30.90;51.70
30304;DHT22;17112;48.636;10.152;2023-06-22T09:17:12;30.90;52.00
30304;DHT22;17112;48.636;10.152;2023-06-22T09:19:38;31.00;51.60
30304;DHT22;17112;48.636;10.152;2023-06-22T09:22:04;31.10;51.90
30304;DHT22;17112;48.636;10.152;2023-06-22T09:24:32;31.20;52.00
30304;DHT22;17112;48.636;10.152;2023-06-22T09:26:57;31.30;51.40
30304;DHT22;17112;48.636;10.152;2023-06-22T09:29:23;31.40;50.90
30304;DHT22;17112;48.636;10.152;2023-06-22T09:31:48;31.40;50.60
30304;DHT22;17112;48.636;10.152;2023-06-22T09:34:14;31.50;51.10
30304;DHT22;17112;48.636;10.152;2023-06-22T09:36:41;31.50;50.90
30304;DHT22;17112;48.636;10.152;2023-06-22T09:39:07;31.60;50.40
30304;DHT22;17112;48.636;10.152;2023-06-22T09:41:32;31.60;50.70
30304;DHT22;17112;48.636;10.152;2023-06-22T09:43:58;31.70;50.80
30304;DHT22;17112;48.636;10.152;2023-06-22T09:46:24;31.80;50.10
30304;DHT22;17112;48.636;10.152;2023-06-22T09:48:53;31.90;50.30
30304;DHT22;17112;48.636;10.152;2023-06-22T09:51:19;31.90;49.80
30304;DHT22;17112;48.636;10.152;2023-06-22T09:53:46;31.90;50.10
30304;DHT22;17112;48.636;10.152;2023-06-22T09:56:12;31.90;50.10
30304;DHT22;17112;48.636;10.152;2023-06-22T09:58:41;32.00;49.90
30304;DHT22;17112;48.636;10.152;2023-06-22T10:01:07;32.10;50.30
30304;DHT22;17112;48.636;10.152;2023-06-22T10:03:33;32.20;49.30
30304;DHT22;17112;48.636;10.152;2023-06-22T10:05:58;32.20;48.30
30304;DHT22;17112;48.636;10.152;2023-06-22T10:08:24;32.20;47.90
30304;DHT22;17112;48.636;10.152;2023-06-22T10:10:50;32.20;48.20
30304;DHT22;17112;48.636;10.152;2023-06-22T10:13:15;32.20;48.20
30304;DHT22;17112;48.636;10.152;2023-06-22T10:15:42;32.20;47.70
30304;DHT22;17112;48.636;10.152;2023-06-22T10:18:08;32.30;48.30
30304;DHT22;17112;48.636;10.152;2023-06-22T10:20:33;32.30;47.90
30304;DHT22;17112;48.636;10.152;2023-06-22T10:22:59;32.40;47.30
30304;DHT22;17112;48.636;10.152;2023-06-22T10:25:26;32.40;47.10
30304;DHT22;17112;48.636;10.152;2023-06-22T10:27:52;32.50;46.10
30304;DHT22;17112;48.636;10.152;2023-06-22T10:30:18;32.50;47.50
30304;DHT22;17112;48.636;10.152;2023-06-22T10:32:44;32.60;47.90
30304;DHT22;17112;48.636;10.152;2023-06-22T10:35:10;32.70;47.50
30304;DHT22;17112;48.636;10.152;2023-06-22T10:37:44;32.80;47.00
30304;DHT22;17112;48.636;10.152;2023-06-22T10:40:12;32.90;46.80
30304;DHT22;17112;48.636;10.152;2023-06-22T10:42:38;33.10;46.30
30304;DHT22;17112;48.636;10.152;2023-06-22T10:45:04;33.20;46.80
30304;DHT22;17112;48.636;10.152;2023-06-22T10:47:30;33.30;46.60
30304;DHT22;17112;48.636;10.152;2023-06-22T10:49:56;33.40;46.20
30304;DHT22;17112;48.636;10.152;2023-06-22T10:52:21;33.50;45.90
30304;DHT22;17112;48.636;10.152;2023-06-22T10:54:47;33.60;45.90
30304;DHT22;17112;48.636;10.152;2023-06-22T10:57:14;33.60;45.60
30304;DHT22;17112;48.636;10.152;2023-06-22T10:59:39;33.60;46.10
30304;DHT22;17112;48.636;10.152;2023-06-22T11:02:05;33.70;46.20
30304;DHT22;17112;48.636;10.152;2023-06-22T11:04:31;33.80;45.60
30304;DHT22;17112;48.636;10.152;2023-06-22T11:06:56;33.90;45.80
30304;DHT22;17112;48.636;10.152;2023-06-22T11:09:22;34.00;45.00
30304;DHT22;17112;48.636;10.152;2023-06-22T11:11:50;34.10;45.40
30304;DHT22;17112;48.636;10.152;2023-06-22T11:14:16;34.20;45.30
30304;DHT22;17112;48.636;10.152;2023-06-22T11:16:42;34.30;44.90
30304;DHT22;17112;48.636;10.152;2023-06-22T11:19:08;34.40;44.40
30304;DHT22;17112;48.636;10.152;2023-06-22T11:21:33;34.50;44.60
30304;DHT22;17112;48.636;10.152;2023-06-22T11:23:59;34.60;45.00
30304;DHT22;17112;48.636;10.152;2023-06-22T11:26:25;34.70;44.90
30304;DHT22;17112;48.636;10.152;2023-06-22T11:28:54;34.80;43.20
30304;DHT22;17112;48.636;10.152;2023-06-22T11:31:20;34.90;43.70
30304;DHT22;17112;48.636;10.152;2023-06-22T11:33:46;35.00;43.10
30304;DHT22;17112;48.636;10.152;2023-06-22T11:36:13;35.10;42.90
30304;DHT22;17112;48.636;10.152;2023-06-22T11:38:39;35.20;41.40
30304;DHT22;17112;48.636;10.152;2023-06-22T11:41:08;35.10;40.40
30304;DHT22;17112;48.636;10.152;2023-06-22T11:43:34;35.10;40.30
30304;DHT22;17112;48.636;10.152;2023-06-22T11:46:01;35.10;41.70
30304;DHT22;17112;48.636;10.152;2023-06-22T11:48:27;35.10;42.70
30304;DHT22;17112;48.636;10.152;2023-06-22T11:50:52;35.20;42.60
30304;DHT22;17112;48.636;10.152;2023-06-22T11:53:21;35.20;42.10
30304;DHT22;17112;48.636;10.152;2023-06-22T11:55:47;35.30;42.50
30304;DHT22;17112;48.636;10.152;2023-06-22T11:58:12;35.40;40.60
30304;DHT22;17112;48.636;10.152;2023-06-22T12:00:38;35.40;40.40
30304;DHT22;17112;48.636;10.152;2023-06-22T12:03:04;35.40;41.10
30304;DHT22;17112;48.636;10.152;2023-06-22T12:05:30;35.40;41.40
30304;DHT22;17112;48.636;10.152;2023-06-22T12:07:55;35.40;41.40
30304;DHT22;17112;48.636;10.152;2023-06-22T12:10:22;35.50;41.60
30304;DHT22;17112;48.636;10.152;2023-06-22T12:12:48;35.50;41.70
30304;DHT22;17112;48.636;10.152;2023-06-22T12:15:13;35.50;41.30
30304;DHT22;17112;48.636;10.152;2023-06-22T12:17:40;35.50;40.50
30304;DHT22;17112;48.636;10.152;2023-06-22T12:20:06;35.50;41.40
30304;DHT22;17112;48.636;10.152;2023-06-22T12:22:33;35.50;41.00
30304;DHT22;17112;48.636;10.152;2023-06-22T12:24:59;35.50;41.10
30304;DHT22;17112;48.636;10.152;2023-06-22T12:27:26;35.40;41.00
30304;DHT22;17112;48.636;10.152;2023-06-22T12:29:52;35.40;40.70
30304;DHT22;17112;48.636;10.152;2023-06-22T12:32:18;35.40;40.30
30304;DHT22;17112;48.636;10.152;2023-06-22T12:34:44;35.40;39.50
30304;DHT22;17112;48.636;10.152;2023-06-22T12:37:10;35.50;41.10
30304;DHT22;17112;48.636;10.152;2023-06-22T12:39:35;35.50;40.80
30304;DHT22;17112;48.636;10.152;2023-06-22T12:42:01;35.60;40.10
30304;DHT22;17112;48.636;10.152;2023-06-22T12:44:27;35.60;41.20
30304;DHT22;17112;48.636;10.152;2023-06-22T12:46:52;35.70;40.10
30304;DHT22;17112;48.636;10.152;2023-06-22T12:49:18;35.70;40.10
30304;DHT22;17112;48.636;10.152;2023-06-22T12:51:44;35.70;39.80
30304;DHT22;17112;48.636;10.152;2023-06-22T12:54:11;35.70;40.00
30304;DHT22;17112;48.636;10.152;2023-06-22T12:56:38;35.70;40.40
30304;DHT22;17112;48.636;10.152;2023-06-22T12:59:06;35.80;40.50
30304;DHT22;17112;48.636;10.152;2023-06-22T13:01:32;35.80;40.30
30304;DHT22;17112;48.636;10.152;2023-06-22T13:04:00;35.90;39.90
30304;DHT22;17112;48.636;10.152;2023-06-22T13:06:26;35.90;39.30
30304;DHT22;17112;48.636;10.152;2023-06-22T13:08:52;36.00;39.30
30304;DHT22;17112;48.636;10.152;2023-06-22T13:11:18;35.90;38.30
30304;DHT22;17112;48.636;10.152;2023-06-22T13:13:45;35.80;38.30
30304;DHT22;17112;48.636;10.152;2023-06-22T13:16:12;35.70;37.90
30304;DHT22;17112;48.636;10.152;2023-06-22T13:18:37;35.60;38.70
30304;DHT22;17112;48.636;10.152;2023-06-22T13:21:03;35.50;39.10
30304;DHT22;17112;48.636;10.152;2023-06-22T13:23:29;35.40;39.40
30304;DHT22;17112;48.636;10.152;2023-06-22T13:25:55;35.40;39.90
30304;DHT22;17112;48.636;10.152;2023-06-22T13:28:20;35.30;40.00
30304;DHT22;17112;48.636;10.152;2023-06-22T13:30:47;35.30;40.30
30304;DHT22;17112;48.636;10.152;2023-06-22T13:33:16;35.30;39.60
30304;DHT22;17112;48.636;10.152;2023-06-22T13:35:42;35.20;39.30
30304;DHT22;17112;48.636;10.152;2023-06-22T13:38:09;35.20;39.30
30304;DHT22;17112;48.636;10.152;2023-06-22T13:40:35;35.20;39.50
30304;DHT22;17112;48.636;10.152;2023-06-22T13:43:01;35.20;40.00
30304;DHT22;17112;48.636;10.152;2023-06-22T13:45:27;35.30;39.90
30304;DHT22;17112;48.636;10.152;2023-06-22T13:47:52;35.30;39.60
30304;DHT22;17112;48.636;10.152;2023-06-22T13:50:18;35.40;39.20
30304;DHT22;17112;48.636;10.152;2023-06-22T13:52:44;35.30;39.10
30304;DHT22;17112;48.636;10.152;2023-06-22T13:55:09;35.30;39.30
30304;DHT22;17112;48.636;10.152;2023-06-22T13:57:36;35.20;39.10
30304;DHT22;17112;48.636;10.152;2023-06-22T14:00:04;35.10;38.90
30304;DHT22;17112;48.636;10.152;2023-06-22T14:02:33;35.00;39.00
30304;DHT22;17112;48.636;10.152;2023-06-22T14:04:59;34.80;39.30
30304;DHT22;17112;48.636;10.152;2023-06-22T14:07:25;34.80;40.50
30304;DHT22;17112;48.636;10.152;2023-06-22T14:09:51;34.80;40.30
30304;DHT22;17112;48.636;10.152;2023-06-22T14:12:17;34.80;40.30
30304;DHT22;17112;48.636;10.152;2023-06-22T14:14:45;34.80;39.90
30304;DHT22;17112;48.636;10.152;2023-06-22T14:17:11;34.70;39.70
30304;DHT22;17112;48.636;10.152;2023-06-22T14:19:36;34.70;39.90
30304;DHT22;17112;48.636;10.152;2023-06-22T14:22:02;34.70;40.70
30304;DHT22;17112;48.636;10.152;2023-06-22T14:24:28;34.80;40.80
30304;DHT22;17112;48.636;10.152;2023-06-22T14:26:55;34.90;40.70
30304;DHT22;17112;48.636;10.152;2023-06-22T14:29:21;35.00;42.00
30304;DHT22;17112;48.636;10.152;2023-06-22T14:31:48;35.20;41.30
30304;DHT22;17112;48.636;10.152;2023-06-22T14:34:15;35.30;40.70
30304;DHT22;17112;48.636;10.152;2023-06-22T14:36:42;35.40;40.80
30304;DHT22;17112;48.636;10.152;2023-06-22T14:39:09;35.50;39.70
30304;DHT22;17112;48.636;10.152;2023-06-22T14:41:34;35.60;39.10
30304;DHT22;17112;48.636;10.152;2023-06-22T14:44:00;35.70;38.90
30304;DHT22;17112;48.636;10.152;2023-06-22T14:46:26;35.70;38.40
30304;DHT22;17112;48.636;10.152;2023-06-22T14:48:52;35.80;38.00
30304;DHT22;17112;48.636;10.152;2023-06-22T14:51:18;35.90;38.20
30304;DHT22;17112;48.636;10.152;2023-06-22T14:53:44;36.00;38.20
30304;DHT22;17112;48.636;10.152;2023-06-22T14:56:10;36.20;38.70
30304;DHT22;17112;48.636;10.152;2023-06-22T14:58:36;36.30;39.30
30304;DHT22;17112;48.636;10.152;2023-06-22T15:01:03;36.60;38.10
30304;DHT22;17112;48.636;10.152;2023-06-22T15:03:30;36.80;39.40
30304;DHT22;17112;48.636;10.152;2023-06-22T15:05:58;37.10;40.00
30304;DHT22;17112;48.636;10.152;2023-06-22T15:08:24;37.40;39.30
30304;DHT22;17112;48.636;10.152;2023-06-22T15:10:50;37.70;38.40
30304;DHT22;17112;48.636;10.152;2023-06-22T15:13:16;37.90;37.70